createdAt,value
2019-03-05T00:00:00.250Z,846.56
2019-03-05T00:01:00.074Z,846.58
2019-03-05T00:02:00.066Z,846.61
2019-03-05T00:03:00.058Z,846.63
2019-03-05T00:04:00.059Z,846.68
2019-03-05T00:05:00.027Z,846.65
2019-03-05T00:06:00.065Z,846.73
2019-03-05T00:06:59.996Z,846.74
2019-03-05T00:08:00.028Z,846.68
2019-03-05T00:09:00.003Z,846.63
2019-03-05T00:10:00.004Z,846.64
2019-03-05T00:10:59.962Z,846.60
2019-03-05T00:11:59.946Z,846.61
2019-03-05T00:12:59.938Z,846.65
2019-03-05T00:13:59.968Z,846.57
2019-03-05T00:14:59.916Z,846.65
2019-03-05T00:15:59.905Z,846.63
2019-03-05T00:16:59.919Z,846.66
2019-03-05T00:17:59.921Z,846.65
2019-03-05T00:18:59.869Z,846.63
2019-03-05T00:19:59.860Z,846.61
2019-03-05T00:20:59.851Z,846.67
2019-03-05T00:21:59.853Z,846.71
2019-03-05T00:22:59.838Z,846.67
2019-03-05T00:23:59.855Z,846.68
2019-03-05T00:24:59.830Z,846.66
2019-03-05T00:25:59.806Z,846.69
2019-03-05T00:26:59.819Z,846.67
2019-03-05T00:27:59.783Z,846.66
2019-03-05T00:28:59.847Z,846.65
2019-03-05T00:29:59.763Z,846.63
2019-03-05T00:30:59.748Z,846.63
2019-03-05T00:31:59.738Z,846.59
2019-03-05T00:32:59.725Z,846.58
2019-03-05T00:33:59.725Z,846.60
2019-03-05T00:34:59.744Z,846.55
2019-03-05T00:35:59.702Z,846.58
2019-03-05T00:36:59.686Z,846.61
2019-03-05T00:37:59.685Z,846.57
2019-03-05T00:38:59.694Z,846.56
2019-03-05T00:39:59.664Z,846.62
2019-03-05T00:40:59.706Z,846.59
2019-03-05T00:41:59.632Z,846.61
2019-03-05T00:42:59.630Z,846.63
2019-03-05T00:43:59.649Z,846.66
2019-03-05T00:44:59.601Z,846.65
2019-03-05T00:45:59.592Z,846.67
2019-03-05T00:46:59.636Z,846.65
2019-03-05T00:47:59.565Z,846.65
2019-03-05T00:48:59.580Z,846.69
2019-03-05T00:49:59.549Z,846.65
2019-03-05T00:50:59.534Z,846.66
2019-03-05T00:51:59.552Z,846.64
2019-03-05T00:52:59.571Z,846.68
2019-03-05T00:53:59.513Z,846.64
2019-03-05T00:54:59.496Z,846.63
2019-03-05T00:55:59.509Z,846.66
2019-03-05T00:56:59.475Z,846.69
2019-03-05T00:57:59.481Z,846.73
2019-03-05T00:58:59.508Z,846.69
2019-03-05T00:59:59.490Z,846.73
2019-03-05T01:00:59.435Z,846.72
2019-03-05T01:01:59.422Z,846.66
2019-03-05T01:02:59.428Z,846.70
2019-03-05T01:03:59.408Z,846.70
2019-03-05T01:04:59.447Z,846.72
2019-03-05T01:05:59.394Z,846.72
2019-03-05T01:06:59.384Z,846.73
2019-03-05T01:07:59.365Z,846.69
2019-03-05T01:08:59.351Z,846.62
2019-03-05T01:09:59.345Z,846.65
2019-03-05T01:10:59.382Z,846.64
2019-03-05T01:11:59.329Z,846.70
2019-03-05T01:12:59.310Z,846.62
2019-03-05T01:13:59.300Z,846.66
2019-03-05T01:14:59.306Z,846.67
2019-03-05T01:15:59.285Z,846.66
2019-03-05T01:16:59.310Z,846.64
2019-03-05T01:17:59.284Z,846.67
2019-03-05T01:18:59.250Z,846.67
2019-03-05T01:19:59.278Z,846.65
2019-03-05T01:20:59.234Z,846.70
2019-03-05T01:21:59.225Z,846.70
2019-03-05T01:22:59.220Z,846.71
2019-03-05T01:23:59.198Z,846.74
2019-03-05T01:24:59.186Z,846.71
2019-03-05T01:25:59.226Z,846.73
2019-03-05T01:26:59.172Z,846.71
2019-03-05T01:27:59.162Z,846.71
2019-03-05T01:28:59.146Z,846.69
2019-03-05T01:29:59.151Z,846.72
2019-03-05T01:30:59.132Z,846.70
2019-03-05T01:31:59.161Z,846.70
2019-03-05T01:32:59.106Z,846.72
2019-03-05T01:33:59.092Z,846.74
2019-03-05T01:34:59.090Z,846.76
2019-03-05T01:35:59.118Z,846.78
2019-03-05T01:36:59.065Z,846.76
2019-03-05T01:37:59.089Z,846.77
2019-03-05T01:38:59.045Z,846.73
2019-03-05T01:39:59.031Z,846.81
2019-03-05T01:40:59.027Z,846.77
2019-03-05T01:41:59.030Z,846.80
2019-03-05T01:42:59.055Z,846.82
2019-03-05T01:43:59.001Z,846.80
2019-03-05T01:44:58.983Z,846.83
2019-03-05T01:45:58.982Z,846.78
2019-03-05T01:46:58.969Z,846.80
2019-03-05T01:47:58.947Z,846.78
2019-03-05T01:48:58.979Z,846.79
2019-03-05T01:49:58.929Z,846.73
2019-03-05T01:50:58.920Z,846.71
2019-03-05T01:51:58.904Z,846.75
2019-03-05T01:52:58.900Z,846.73
2019-03-05T01:53:58.886Z,846.71
2019-03-05T01:54:58.928Z,846.74
2019-03-05T01:55:58.865Z,846.73
2019-03-05T01:56:58.860Z,846.73
2019-03-05T01:57:58.884Z,846.77
2019-03-05T01:58:58.843Z,846.71
2019-03-05T01:59:58.839Z,846.70
2019-03-05T02:00:58.812Z,846.71
2019-03-05T02:01:58.801Z,846.70
2019-03-05T02:02:58.794Z,846.72
2019-03-05T02:03:58.825Z,846.69
2019-03-05T02:04:58.779Z,846.74
2019-03-05T02:05:58.762Z,846.76
2019-03-05T02:06:58.750Z,846.72
2019-03-05T02:07:58.755Z,846.73
2019-03-05T02:08:58.728Z,846.72
2019-03-05T02:09:58.760Z,846.75
2019-03-05T02:10:58.707Z,846.75
2019-03-05T02:11:58.696Z,846.74
2019-03-05T02:12:58.684Z,846.74
2019-03-05T02:13:58.688Z,846.77
2019-03-05T02:14:58.684Z,846.75
2019-03-05T02:15:58.701Z,846.69
2019-03-05T02:16:58.649Z,846.70
2019-03-05T02:17:58.644Z,846.69
2019-03-05T02:18:58.623Z,846.69
2019-03-05T02:19:58.614Z,846.70
2019-03-05T02:20:58.625Z,846.70
2019-03-05T02:21:58.648Z,846.67
2019-03-05T02:22:58.631Z,846.65
2019-03-05T02:23:58.601Z,846.58
2019-03-05T02:24:58.566Z,846.56
2019-03-05T02:25:58.588Z,846.55
2019-03-05T02:26:58.548Z,846.49
2019-03-05T02:27:58.537Z,846.53
2019-03-05T02:28:58.571Z,846.51
2019-03-05T02:29:58.531Z,846.52
2019-03-05T02:30:58.540Z,846.48
2019-03-05T02:31:58.490Z,846.46
2019-03-05T02:32:58.527Z,846.42
2019-03-05T02:33:58.488Z,846.40
2019-03-05T02:34:58.463Z,846.43
2019-03-05T02:35:58.452Z,846.46
2019-03-05T02:36:58.447Z,846.44
2019-03-05T02:37:58.430Z,846.46
2019-03-05T02:38:58.472Z,846.53
2019-03-05T02:39:58.408Z,846.55
2019-03-05T02:40:58.401Z,846.47
2019-03-05T02:41:58.390Z,846.42
2019-03-05T02:42:58.377Z,846.39
2019-03-05T02:43:58.391Z,846.33
2019-03-05T02:44:58.455Z,846.34
2019-03-05T02:45:58.345Z,846.37
2019-03-05T02:46:58.366Z,846.37
2019-03-05T02:47:58.329Z,846.41
2019-03-05T02:48:58.314Z,846.43
2019-03-05T02:49:58.373Z,846.48
2019-03-05T02:50:58.301Z,846.50
2019-03-05T02:51:58.291Z,846.46
2019-03-05T02:53:00.381Z,846.45
2019-03-05T02:53:58.282Z,846.45
2019-03-05T02:54:58.258Z,846.42
2019-03-05T02:55:58.315Z,846.42
2019-03-05T02:56:58.236Z,846.39
2019-03-05T02:57:58.225Z,846.37
2019-03-05T02:58:58.224Z,846.32
2019-03-05T02:59:58.220Z,846.34
2019-03-05T03:00:58.215Z,846.30
2019-03-05T03:01:58.232Z,846.31
2019-03-05T03:02:58.171Z,846.28
2019-03-05T03:03:58.164Z,846.28
2019-03-05T03:04:58.159Z,846.29
2019-03-05T03:05:58.144Z,846.30
2019-03-05T03:06:58.155Z,846.33
2019-03-05T03:08:24.175Z,846.34
2019-03-05T03:08:59.122Z,846.28
2019-03-05T03:09:58.113Z,846.27
2019-03-05T03:10:58.089Z,846.31
2019-03-05T03:11:58.119Z,846.24
2019-03-05T03:12:58.076Z,846.28
2019-03-05T03:13:58.100Z,846.26
2019-03-05T03:14:58.065Z,846.26
2019-03-05T03:15:58.042Z,846.25
2019-03-05T03:16:58.042Z,846.26
2019-03-05T03:17:58.049Z,846.23
2019-03-05T03:18:58.018Z,846.24
2019-03-05T03:19:58.066Z,846.19
2019-03-05T03:20:57.987Z,846.15
2019-03-05T03:21:57.990Z,846.21
2019-03-05T03:22:57.966Z,846.22
2019-03-05T03:23:57.962Z,846.27
2019-03-05T03:24:57.962Z,846.19
2019-03-05T03:25:58.003Z,846.16
2019-03-05T03:26:57.937Z,846.18
2019-03-05T03:27:57.921Z,846.15
2019-03-05T03:28:57.989Z,846.14
2019-03-05T03:29:57.943Z,846.15
2019-03-05T03:30:57.908Z,846.21
2019-03-05T03:31:57.940Z,846.26
2019-03-05T03:32:57.866Z,846.20
2019-03-05T03:33:57.885Z,846.21
2019-03-05T03:34:57.913Z,846.21
2019-03-05T03:35:57.832Z,846.22
2019-03-05T03:36:57.830Z,846.20
2019-03-05T03:37:57.815Z,846.24
2019-03-05T03:38:57.803Z,846.23
2019-03-05T03:39:57.802Z,846.22
2019-03-05T03:40:57.848Z,846.21
2019-03-05T03:41:57.802Z,846.18
2019-03-05T03:42:57.777Z,846.18
2019-03-05T03:43:57.753Z,846.18
2019-03-05T03:44:57.756Z,846.19
2019-03-05T03:45:57.745Z,846.21
2019-03-05T03:46:57.771Z,846.20
2019-03-05T03:47:57.712Z,846.18
2019-03-05T03:48:57.704Z,846.18
2019-03-05T03:49:57.705Z,846.15
2019-03-05T03:50:57.679Z,846.15
2019-03-05T03:51:57.679Z,846.16
2019-03-05T03:52:57.699Z,846.16
2019-03-05T03:53:57.652Z,846.20
2019-03-05T03:54:57.734Z,846.19
2019-03-05T03:55:57.639Z,846.21
2019-03-05T03:56:57.615Z,846.23
2019-03-05T03:57:57.638Z,846.25
2019-03-05T03:58:57.617Z,846.27
2019-03-05T03:59:57.615Z,846.25
2019-03-05T04:00:57.628Z,846.25
2019-03-05T04:01:57.567Z,846.30
2019-03-05T04:02:57.574Z,846.22
2019-03-05T04:03:57.560Z,846.25
2019-03-05T04:04:57.537Z,846.23
2019-03-05T04:05:57.542Z,846.27
2019-03-05T04:06:57.579Z,846.23
2019-03-05T04:07:57.531Z,846.24
2019-03-05T04:08:57.518Z,846.27
2019-03-05T04:09:57.499Z,846.26
2019-03-05T04:10:57.514Z,846.27
2019-03-05T04:11:57.466Z,846.27
2019-03-05T04:12:57.468Z,846.26
2019-03-05T04:13:59.750Z,846.25
2019-03-05T04:14:57.453Z,846.27
2019-03-05T04:15:57.483Z,846.27
2019-03-05T04:16:57.416Z,846.24
2019-03-05T04:17:57.418Z,846.21
2019-03-05T04:18:57.441Z,846.28
2019-03-05T04:19:57.388Z,846.29
2019-03-05T04:20:57.442Z,846.26
2019-03-05T04:21:57.392Z,846.27
2019-03-05T04:22:57.353Z,846.24
2019-03-05T04:23:57.342Z,846.26
2019-03-05T04:24:57.327Z,846.27
2019-03-05T04:25:57.332Z,846.25
2019-03-05T04:26:57.343Z,846.30
2019-03-05T04:27:57.294Z,846.29
2019-03-05T04:28:57.285Z,846.35
2019-03-05T04:29:57.289Z,846.34
2019-03-05T04:30:57.276Z,846.38
2019-03-05T04:31:57.258Z,846.39
2019-03-05T04:32:57.306Z,846.40
2019-03-05T04:33:57.266Z,846.40
2019-03-05T04:34:57.232Z,846.44
2019-03-05T04:35:57.259Z,846.38
2019-03-05T04:36:57.216Z,846.43
2019-03-05T04:37:57.198Z,846.38
2019-03-05T04:38:57.182Z,846.42
2019-03-05T04:39:57.173Z,846.42
2019-03-05T04:40:57.164Z,846.44
2019-03-05T04:41:57.202Z,846.38
2019-03-05T04:42:57.169Z,846.39
2019-03-05T04:43:57.136Z,846.40
2019-03-05T04:44:57.123Z,846.40
2019-03-05T04:45:57.113Z,846.37
2019-03-05T04:46:57.101Z,846.38
2019-03-05T04:47:57.133Z,846.44
2019-03-05T04:48:57.085Z,846.38
2019-03-05T04:49:57.078Z,846.43
2019-03-05T04:50:57.062Z,846.36
2019-03-05T04:51:57.060Z,846.44
2019-03-05T04:52:57.052Z,846.38
2019-03-05T04:53:57.114Z,846.43
2019-03-05T04:54:57.019Z,846.43
2019-03-05T04:55:57.013Z,846.46
2019-03-05T04:56:56.999Z,846.48
2019-03-05T04:57:57.002Z,846.51
2019-03-05T04:58:56.991Z,846.49
2019-03-05T04:59:57.001Z,846.44
2019-03-05T05:00:57.029Z,846.51
2019-03-05T05:01:56.942Z,846.47
2019-03-05T05:02:58.455Z,846.48
2019-03-05T05:03:56.937Z,846.49
2019-03-05T05:04:56.923Z,846.55
2019-03-05T05:05:56.913Z,846.55
2019-03-05T05:06:56.943Z,846.58
2019-03-05T05:07:56.947Z,846.56
2019-03-05T05:08:56.877Z,846.58
2019-03-05T05:09:56.866Z,846.54
2019-03-05T05:10:56.850Z,846.59
2019-03-05T05:11:56.849Z,846.57
2019-03-05T05:12:56.931Z,846.61
2019-03-05T05:13:56.841Z,846.62
2019-03-05T05:14:56.822Z,846.61
2019-03-05T05:15:56.817Z,846.62
2019-03-05T05:16:56.810Z,846.64
2019-03-05T05:17:56.802Z,846.61
2019-03-05T05:18:56.855Z,846.64
2019-03-05T05:19:56.755Z,846.64
2019-03-05T05:20:56.751Z,846.64
2019-03-05T05:21:56.758Z,846.64
2019-03-05T05:22:57.589Z,846.66
2019-03-05T05:23:56.742Z,846.64
2019-03-05T05:24:56.769Z,846.71
2019-03-05T05:25:56.699Z,846.65
2019-03-05T05:26:56.724Z,846.64
2019-03-05T05:27:56.688Z,846.65
2019-03-05T05:28:56.671Z,846.70
2019-03-05T05:29:56.688Z,846.71
2019-03-05T05:30:56.687Z,846.69
2019-03-05T05:31:58.384Z,846.67
2019-03-05T05:32:56.637Z,846.66
2019-03-05T05:33:56.623Z,846.68
2019-03-05T05:34:56.605Z,846.70
2019-03-05T05:35:56.641Z,846.67
2019-03-05T05:36:56.617Z,846.69
2019-03-05T05:37:56.572Z,846.76
2019-03-05T05:38:56.564Z,846.71
2019-03-05T05:39:56.622Z,846.76
2019-03-05T05:40:56.586Z,846.76
2019-03-05T05:41:56.570Z,846.78
2019-03-05T05:42:56.516Z,846.76
2019-03-05T05:43:56.512Z,846.77
2019-03-05T05:44:56.500Z,846.71
2019-03-05T05:45:56.490Z,846.74
2019-03-05T05:46:56.508Z,846.70
2019-03-05T05:47:56.508Z,846.73
2019-03-05T05:48:56.482Z,846.72
2019-03-05T05:49:56.453Z,846.74
2019-03-05T05:50:56.441Z,846.71
2019-03-05T05:51:56.428Z,846.75
2019-03-05T05:52:56.440Z,846.73
2019-03-05T05:53:56.449Z,846.72
2019-03-05T05:54:56.407Z,846.73
2019-03-05T05:55:56.385Z,846.75
2019-03-05T05:56:56.378Z,846.74
2019-03-05T05:57:56.398Z,846.85
2019-03-05T05:58:56.359Z,846.82
2019-03-05T05:59:56.395Z,846.82
2019-03-05T06:00:56.336Z,846.81
2019-03-05T06:01:56.326Z,846.83
2019-03-05T06:02:56.566Z,846.87
2019-03-05T06:03:56.310Z,846.84
2019-03-05T06:04:56.326Z,846.87
2019-03-05T06:05:56.343Z,846.91
2019-03-05T06:06:56.275Z,846.86
2019-03-05T06:07:56.270Z,846.89
2019-03-05T06:08:56.259Z,846.83
2019-03-05T06:09:56.267Z,846.82
2019-03-05T06:10:56.253Z,846.84
2019-03-05T06:11:56.262Z,846.82
2019-03-05T06:12:56.254Z,846.81
2019-03-05T06:13:56.450Z,846.84
2019-03-05T06:14:56.195Z,846.80
2019-03-05T06:15:56.193Z,846.80
2019-03-05T06:16:56.167Z,846.85
2019-03-05T06:17:56.178Z,846.87
2019-03-05T06:18:56.201Z,846.84
2019-03-05T06:19:56.138Z,846.83
2019-03-05T06:20:56.148Z,846.83
2019-03-05T06:21:56.171Z,846.82
2019-03-05T06:22:56.114Z,846.79
2019-03-05T06:23:56.108Z,846.81
2019-03-05T06:24:56.093Z,846.87
2019-03-05T06:25:56.133Z,846.85
2019-03-05T06:26:56.070Z,846.86
2019-03-05T06:27:56.060Z,846.91
2019-03-05T06:28:56.061Z,846.81
2019-03-05T06:29:56.060Z,846.88
2019-03-05T06:30:56.025Z,846.78
2019-03-05T06:31:56.143Z,846.83
2019-03-05T06:32:56.032Z,846.90
2019-03-05T06:33:55.999Z,846.91
2019-03-05T06:34:56.005Z,846.93
2019-03-05T06:35:55.978Z,846.92
2019-03-05T06:36:55.974Z,846.93
2019-03-05T06:37:56.008Z,846.95
2019-03-05T06:38:55.978Z,846.92
2019-03-05T06:39:55.938Z,846.90
2019-03-05T06:40:55.949Z,846.92
2019-03-05T06:41:55.911Z,846.97
2019-03-05T06:42:55.913Z,846.92
2019-03-05T06:43:55.899Z,846.93
2019-03-05T06:44:55.922Z,846.89
2019-03-05T06:45:55.921Z,846.89
2019-03-05T06:46:55.882Z,846.96
2019-03-05T06:47:55.850Z,846.91
2019-03-05T06:48:55.842Z,846.96
2019-03-05T06:49:55.829Z,846.98
2019-03-05T06:50:55.873Z,846.99
2019-03-05T06:51:55.808Z,847.07
2019-03-05T06:52:55.817Z,847.06
2019-03-05T06:53:55.792Z,847.06
2019-03-05T06:54:55.825Z,847.04
2019-03-05T06:55:55.774Z,847.07
2019-03-05T06:56:55.761Z,847.16
2019-03-05T06:57:55.762Z,847.17
2019-03-05T06:58:55.746Z,847.19
2019-03-05T06:59:55.736Z,847.20
2019-03-05T07:00:55.758Z,847.25
2019-03-05T07:01:55.715Z,847.26
2019-03-05T07:02:55.703Z,847.25
2019-03-05T07:03:55.686Z,847.21
2019-03-05T07:04:55.696Z,847.25
2019-03-05T07:05:55.712Z,847.26
2019-03-05T07:06:55.664Z,847.23
2019-03-05T07:07:55.650Z,847.24
2019-03-05T07:08:55.639Z,847.25
2019-03-05T07:09:55.665Z,847.25
2019-03-05T07:10:57.074Z,847.23
2019-03-05T07:11:55.642Z,847.22
2019-03-05T07:12:55.600Z,847.21
2019-03-05T07:13:55.575Z,847.22
2019-03-05T07:14:55.579Z,847.21
2019-03-05T07:15:55.631Z,847.20
2019-03-05T07:16:55.573Z,847.16
2019-03-05T07:17:55.658Z,847.20
2019-03-05T07:18:55.540Z,847.24
2019-03-05T07:19:58.208Z,847.22
2019-03-05T07:20:55.555Z,847.24
2019-03-05T07:21:55.504Z,847.18
2019-03-05T07:22:55.498Z,847.19
2019-03-05T07:23:55.474Z,847.18
2019-03-05T07:24:55.472Z,847.24
2019-03-05T07:25:55.455Z,847.26
2019-03-05T07:26:55.491Z,847.28
2019-03-05T07:27:55.453Z,847.32
2019-03-05T07:28:55.423Z,847.27
2019-03-05T07:29:55.420Z,847.28
2019-03-05T07:30:55.404Z,847.32
2019-03-05T07:31:55.415Z,847.32
2019-03-05T07:32:55.430Z,847.35
2019-03-05T07:33:55.410Z,847.38
2019-03-05T07:34:55.359Z,847.34
2019-03-05T07:35:55.361Z,847.33
2019-03-05T07:36:55.357Z,847.36
2019-03-05T07:37:55.332Z,847.36
2019-03-05T07:38:55.363Z,847.37
2019-03-05T07:39:55.347Z,847.45
2019-03-05T07:40:55.294Z,847.42
2019-03-05T07:41:55.282Z,847.46
2019-03-05T07:42:55.284Z,847.48
2019-03-05T07:43:55.259Z,847.52
2019-03-05T07:44:55.248Z,847.44
2019-03-05T07:45:55.291Z,847.47
2019-03-05T07:46:55.231Z,847.52
2019-03-05T07:47:55.219Z,847.49
2019-03-05T07:48:55.269Z,847.52
2019-03-05T07:49:55.191Z,847.56
2019-03-05T07:50:55.180Z,847.54
2019-03-05T07:51:55.173Z,847.57
2019-03-05T07:52:55.165Z,847.50
2019-03-05T07:53:55.155Z,847.54
2019-03-05T07:54:55.190Z,847.58
2019-03-05T07:55:55.135Z,847.61
2019-03-05T07:56:55.131Z,847.62
2019-03-05T07:57:55.106Z,847.58
2019-03-05T07:58:55.119Z,847.58
2019-03-05T07:59:55.089Z,847.60
2019-03-05T08:00:55.114Z,847.56
2019-03-05T08:01:55.083Z,847.54
2019-03-05T08:02:55.101Z,847.50
2019-03-05T08:03:55.042Z,847.46
2019-03-05T08:04:55.036Z,847.45
2019-03-05T08:05:55.021Z,847.49
2019-03-05T08:06:55.023Z,847.49
2019-03-05T08:07:55.018Z,847.57
2019-03-05T08:08:55.034Z,847.49
2019-03-05T08:09:54.979Z,847.50
2019-03-05T08:10:54.980Z,847.45
2019-03-05T08:11:54.958Z,847.50
2019-03-05T08:12:54.956Z,847.44
2019-03-05T08:13:54.943Z,847.51
2019-03-05T08:14:54.971Z,847.47
2019-03-05T08:16:02.470Z,847.56
2019-03-05T08:16:55.906Z,847.55
2019-03-05T08:17:54.896Z,847.50
2019-03-05T08:18:54.886Z,847.56
2019-03-05T08:19:54.887Z,847.54
2019-03-05T08:20:54.903Z,847.49
2019-03-05T08:21:54.900Z,847.49
2019-03-05T08:22:54.858Z,847.54
2019-03-05T08:23:54.835Z,847.49
2019-03-05T08:24:54.822Z,847.51
2019-03-05T08:25:54.810Z,847.64
2019-03-05T08:26:54.800Z,847.63
2019-03-05T08:27:54.830Z,847.68
2019-03-05T08:28:54.794Z,847.69
2019-03-05T08:29:54.768Z,847.68
2019-03-05T08:30:54.755Z,847.61
2019-03-05T08:31:54.744Z,847.61
2019-03-05T08:32:54.742Z,847.59
2019-03-05T08:33:54.763Z,847.59
2019-03-05T08:34:54.723Z,847.60
2019-03-05T08:35:54.700Z,847.67
2019-03-05T08:36:54.690Z,847.66
2019-03-05T08:37:54.687Z,847.65
2019-03-05T08:38:54.671Z,847.64
2019-03-05T08:39:54.697Z,847.64
2019-03-05T08:40:54.654Z,847.67
2019-03-05T08:41:54.642Z,847.73
2019-03-05T08:42:54.637Z,847.72
2019-03-05T08:43:54.631Z,847.77
2019-03-05T08:44:54.649Z,847.78
2019-03-05T08:45:54.609Z,847.73
2019-03-05T08:46:54.630Z,847.73
2019-03-05T08:47:54.616Z,847.71
2019-03-05T08:48:54.569Z,847.68
2019-03-05T08:49:54.581Z,847.67
2019-03-05T08:50:54.545Z,847.66
2019-03-05T08:51:54.537Z,847.66
2019-03-05T08:52:54.527Z,847.66
2019-03-05T08:53:54.554Z,847.69
2019-03-05T08:54:54.525Z,847.70
2019-03-05T08:55:54.522Z,847.70
2019-03-05T08:56:54.480Z,847.73
2019-03-05T08:57:54.473Z,847.69
2019-03-05T08:58:54.471Z,847.69
2019-03-05T08:59:54.489Z,847.74
2019-03-05T09:00:54.441Z,847.70
2019-03-05T09:01:54.429Z,847.74
2019-03-05T09:02:54.446Z,847.67
2019-03-05T09:03:54.468Z,847.73
2019-03-05T09:04:54.404Z,847.72
2019-03-05T09:05:54.418Z,847.70
2019-03-05T09:06:54.377Z,847.71
2019-03-05T09:07:54.367Z,847.69
2019-03-05T09:08:54.345Z,847.73
2019-03-05T09:09:54.334Z,847.72
2019-03-05T09:10:54.341Z,847.68
2019-03-05T09:11:54.354Z,847.68
2019-03-05T09:12:54.307Z,847.72
2019-03-05T09:13:54.295Z,847.75
2019-03-05T09:14:54.279Z,847.80
2019-03-05T09:15:54.332Z,847.79
2019-03-05T09:16:54.256Z,847.80
2019-03-05T09:17:54.249Z,847.76
2019-03-05T09:18:54.241Z,847.74
2019-03-05T09:19:54.232Z,847.76
2019-03-05T09:20:54.223Z,847.75
2019-03-05T09:21:54.259Z,847.78
2019-03-05T09:22:54.199Z,847.82
2019-03-05T09:23:54.188Z,847.82
2019-03-05T09:24:54.173Z,847.82
2019-03-05T09:25:54.175Z,847.79
2019-03-05T09:26:54.168Z,847.79
2019-03-05T09:27:55.354Z,847.79
2019-03-05T09:28:54.137Z,847.81
2019-03-05T09:29:54.132Z,847.83
2019-03-05T09:30:54.108Z,847.82
2019-03-05T09:31:54.105Z,847.81
2019-03-05T09:32:54.150Z,847.88
2019-03-05T09:33:54.081Z,847.84
2019-03-05T09:34:54.065Z,847.82
2019-03-05T09:35:54.057Z,847.81
2019-03-05T09:36:54.043Z,847.81
2019-03-05T09:37:54.034Z,847.84
2019-03-05T09:38:54.092Z,847.83
2019-03-05T09:39:54.013Z,847.84
2019-03-05T09:40:54.002Z,847.82
2019-03-05T09:41:54.004Z,847.82
2019-03-05T09:42:53.990Z,847.84
2019-03-05T09:43:53.982Z,847.82
2019-03-05T09:44:54.019Z,847.82
2019-03-05T09:45:53.951Z,847.80
2019-03-05T09:46:53.979Z,847.79
2019-03-05T09:47:53.931Z,847.78
2019-03-05T09:48:53.925Z,847.79
2019-03-05T09:49:53.902Z,847.73
2019-03-05T09:50:53.893Z,847.78
2019-03-05T09:51:53.902Z,847.82
2019-03-05T09:52:55.253Z,847.83
2019-03-05T09:53:53.862Z,847.86
2019-03-05T09:54:53.857Z,847.86
2019-03-05T09:55:53.863Z,847.90
2019-03-05T09:56:53.828Z,847.92
2019-03-05T09:57:53.818Z,847.84
2019-03-05T09:58:53.860Z,847.86
2019-03-05T09:59:53.796Z,847.84
2019-03-05T10:00:53.813Z,847.87
2019-03-05T10:01:53.778Z,847.84
2019-03-05T10:02:53.773Z,847.85
2019-03-05T10:03:53.797Z,847.89
2019-03-05T10:04:53.742Z,847.88
2019-03-05T10:05:53.773Z,847.85
2019-03-05T10:06:53.790Z,847.83
2019-03-05T10:07:53.713Z,847.89
2019-03-05T10:08:53.742Z,847.90
2019-03-05T10:09:53.689Z,847.92
2019-03-05T10:10:53.689Z,847.95
2019-03-05T10:11:56.834Z,847.93
2019-03-05T10:12:53.678Z,847.90
2019-03-05T10:13:53.649Z,847.93
2019-03-05T10:14:53.674Z,847.96
2019-03-05T10:15:53.673Z,847.92
2019-03-05T10:16:53.641Z,847.95
2019-03-05T10:17:53.620Z,847.95
2019-03-05T10:18:53.616Z,847.97
2019-03-05T10:19:53.586Z,847.99
2019-03-05T10:20:53.623Z,847.95
2019-03-05T10:21:53.561Z,847.96
2019-03-05T10:22:53.554Z,848.02
2019-03-05T10:23:53.546Z,847.96
2019-03-05T10:24:53.537Z,847.95
2019-03-05T10:25:53.522Z,847.95
2019-03-05T10:26:53.607Z,847.89
2019-03-05T10:27:53.495Z,847.84
2019-03-05T10:28:53.488Z,847.87
2019-03-05T10:29:53.485Z,847.86
2019-03-05T10:30:53.467Z,847.83
2019-03-05T10:31:53.467Z,847.84
2019-03-05T10:32:53.480Z,847.90
2019-03-05T10:33:53.431Z,847.88
2019-03-05T10:34:53.442Z,847.93
2019-03-05T10:35:53.410Z,847.89
2019-03-05T10:36:53.394Z,847.92
2019-03-05T10:37:53.385Z,847.92
2019-03-05T10:38:57.356Z,847.89
2019-03-05T10:39:53.365Z,847.87
2019-03-05T10:40:53.376Z,847.89
2019-03-05T10:41:53.348Z,847.87
2019-03-05T10:42:53.328Z,847.87
2019-03-05T10:43:53.323Z,847.82
2019-03-05T10:44:53.354Z,847.85
2019-03-05T10:45:53.305Z,847.83
2019-03-05T10:46:55.942Z,847.79
2019-03-05T10:47:53.276Z,847.83
2019-03-05T10:48:53.268Z,847.82
2019-03-05T10:49:53.261Z,847.86
2019-03-05T10:50:53.292Z,847.88
2019-03-05T10:51:53.245Z,847.89
2019-03-05T10:52:53.248Z,847.85
2019-03-05T10:53:53.216Z,847.86
2019-03-05T10:54:53.203Z,847.79
2019-03-05T10:55:53.212Z,847.75
2019-03-05T10:56:53.241Z,847.68
2019-03-05T10:57:53.172Z,847.64
2019-03-05T10:58:53.176Z,847.57
2019-03-05T10:59:53.146Z,847.54
2019-03-05T11:00:53.160Z,847.51
2019-03-05T11:01:53.131Z,847.55
2019-03-05T11:02:53.154Z,847.46
2019-03-05T11:03:53.147Z,847.47
2019-03-05T11:04:53.095Z,847.49
2019-03-05T11:05:53.093Z,847.44
2019-03-05T11:06:53.087Z,847.41
2019-03-05T11:07:53.062Z,847.41
2019-03-05T11:08:53.052Z,847.48
2019-03-05T11:09:53.081Z,847.49
2019-03-05T11:10:53.031Z,847.45
2019-03-05T11:11:53.016Z,847.48
2019-03-05T11:12:53.029Z,847.55
2019-03-05T11:13:52.997Z,847.50
2019-03-05T11:14:52.991Z,847.47
2019-03-05T11:15:53.017Z,847.47
2019-03-05T11:16:52.973Z,847.57
2019-03-05T11:17:52.950Z,847.57
2019-03-05T11:18:52.959Z,847.60
2019-03-05T11:19:52.926Z,847.54
2019-03-05T11:20:52.923Z,847.58
2019-03-05T11:21:52.953Z,847.57
2019-03-05T11:22:52.895Z,847.56
2019-03-05T11:23:52.885Z,847.54
2019-03-05T11:24:52.900Z,847.53
2019-03-05T11:25:52.864Z,847.52
2019-03-05T11:26:52.857Z,847.53
2019-03-05T11:27:52.880Z,847.54
2019-03-05T11:28:54.656Z,847.56
2019-03-05T11:29:52.826Z,847.54
2019-03-05T11:30:52.875Z,847.54
2019-03-05T11:31:52.802Z,847.52
2019-03-05T11:32:52.805Z,847.48
2019-03-05T11:33:52.778Z,847.50
2019-03-05T11:34:52.763Z,847.51
2019-03-05T11:35:52.756Z,847.49
2019-03-05T11:36:52.787Z,847.49
2019-03-05T11:37:52.734Z,847.45
2019-03-05T11:38:52.742Z,847.45
2019-03-05T11:39:55.266Z,847.41
2019-03-05T11:40:52.700Z,847.51
2019-03-05T11:41:52.686Z,847.42
2019-03-05T11:42:52.723Z,847.45
2019-03-05T11:43:52.668Z,847.42
2019-03-05T11:45:06.698Z,847.41
2019-03-05T11:45:53.646Z,847.39
2019-03-05T11:46:52.631Z,847.42
2019-03-05T11:47:52.627Z,847.42
2019-03-05T11:48:52.658Z,847.37
2019-03-05T11:49:52.601Z,847.39
2019-03-05T11:50:52.602Z,847.36
2019-03-05T11:51:52.578Z,847.44
2019-03-05T11:52:52.565Z,847.46
2019-03-05T11:53:52.601Z,847.42
2019-03-05T11:54:52.560Z,847.39
2019-03-05T11:55:52.536Z,847.46
2019-03-05T11:56:52.545Z,847.45
2019-03-05T11:57:52.520Z,847.46
2019-03-05T11:58:52.505Z,847.48
2019-03-05T11:59:52.540Z,847.43
2019-03-05T12:00:52.478Z,847.36
2019-03-05T12:01:52.473Z,847.33
2019-03-05T12:02:52.476Z,847.29
2019-03-05T12:03:52.493Z,847.25
2019-03-05T12:04:52.441Z,847.28
2019-03-05T12:05:52.471Z,847.28
2019-03-05T12:06:52.413Z,847.24
2019-03-05T12:07:52.405Z,847.29
2019-03-05T12:08:52.390Z,847.26
2019-03-05T12:09:52.428Z,847.26
2019-03-05T12:10:52.374Z,847.26
2019-03-05T12:11:52.406Z,847.28
2019-03-05T12:12:52.352Z,847.27
2019-03-05T12:13:52.341Z,847.26
2019-03-05T12:14:52.329Z,847.35
2019-03-05T12:15:52.382Z,847.32
2019-03-05T12:16:52.306Z,847.31
2019-03-05T12:17:52.295Z,847.36
2019-03-05T12:18:52.287Z,847.39
2019-03-05T12:19:52.286Z,847.32
2019-03-05T12:20:52.270Z,847.28
2019-03-05T12:21:52.308Z,847.22
2019-03-05T12:22:52.243Z,847.26
2019-03-05T12:23:52.229Z,847.27
2019-03-05T12:24:52.220Z,847.29
2019-03-05T12:25:52.210Z,847.24
2019-03-05T12:26:52.197Z,847.27
2019-03-05T12:27:52.239Z,847.22